Time;durP1;ratioP1;P1;durP2;ratioP2;P2;SDS_P1;SDS_P2;PMS_P1;PMS_P2;Temp;Humidity;BMP_temperature;BMP_pressure;BME280_temperature;BME280_humidity;BME280_pressure;Samples;Min_cycle;Max_cycle;Signal;HPM_P1;HPM_P2
2022/09/18 00:00:38;;;;;;;8.93;1.88;;;21.10;57.40;;;;;;5040226;28;20502;-62
2022/09/18 00:03:04;;;;;;;9.77;2.10;;;21.00;57.40;;;;;;5046916;28;20079;-62
2022/09/18 00:05:29;;;;;;;8.07;1.70;;;21.00;57.50;;;;;;5044294;28;20036;-62
2022/09/18 00:07:55;;;;;;;11.20;1.80;;;21.00;57.50;;;;;;5044576;28;20785;-62
2022/09/18 00:10:21;;;;;;;6.95;1.95;;;21.00;57.50;;;;;;5046388;28;20406;-62
2022/09/18 00:12:46;;;;;;;6.78;1.45;;;21.00;57.60;;;;;;5046653;28;20509;-62
2022/09/18 00:15:12;;;;;;;8.18;1.70;;;20.90;57.50;;;;;;5043930;28;20650;-62
2022/09/18 00:17:38;;;;;;;6.03;1.33;;;20.90;57.60;;;;;;5045200;28;20404;-62
2022/09/18 00:20:04;;;;;;;5.80;1.38;;;20.90;57.50;;;;;;5043702;28;20508;-62
2022/09/18 00:22:29;;;;;;;7.90;1.80;;;20.90;57.50;;;;;;5046446;28;20053;-62
2022/09/18 00:24:55;;;;;;;7.22;1.83;;;20.90;57.50;;;;;;5046185;28;20086;-62
2022/09/18 00:27:21;;;;;;;6.90;1.50;;;20.90;57.60;;;;;;5043687;28;20129;-62
2022/09/18 00:29:46;;;;;;;7.97;1.50;;;20.90;57.60;;;;;;5041018;28;20100;-62
2022/09/18 00:32:12;;;;;;;6.68;1.85;;;20.90;57.60;;;;;;5046622;28;20068;-62
2022/09/18 00:34:40;;;;;;;6.85;1.70;;;20.90;57.60;;;;;;5045263;28;20036;-62
2022/09/18 00:37:06;;;;;;;8.75;1.88;;;20.90;57.60;;;;;;5046181;28;20339;-62
2022/09/18 00:39:31;;;;;;;5.70;1.40;;;20.90;57.60;;;;;;5044808;28;20032;-62
2022/09/18 00:41:57;;;;;;;6.13;1.50;;;20.80;57.60;;;;;;5045906;28;20091;-62
2022/09/18 00:44:31;;;;;;;5.20;1.25;;;20.80;57.60;;;;;;5045033;28;20032;-62
2022/09/18 00:47:20;;;;;;;4.65;1.40;;;20.80;57.60;;;;;;5043860;28;20357;-62
2022/09/18 00:49:49;;;;;;;5.38;1.48;;;20.80;57.60;;;;;;5029298;28;20086;-62
2022/09/18 00:52:15;;;;;;;6.43;1.48;;;20.80;57.70;;;;;;5044023;28;20074;-62
2022/09/18 00:54:45;;;;;;;6.22;1.30;;;20.80;57.60;;;;;;5027435;28;21602;-62
2022/09/18 00:57:16;;;;;;;4.18;1.30;;;20.80;57.60;;;;;;5026370;28;20021;-62
2022/09/18 00:59:44;;;;;;;5.03;1.35;;;20.70;57.60;;;;;;5024533;28;20486;-62
2022/09/18 01:02:09;;;;;;;5.50;1.60;;;20.70;57.70;;;;;;5024988;28;20052;-61
2022/09/18 01:04:35;;;;;;;5.97;1.38;;;20.70;57.70;;;;;;5043949;28;20490;-62
2022/09/18 01:07:04;;;;;;;4.82;1.73;;;20.70;57.70;;;;;;5044804;28;20407;-62
2022/09/18 01:09:41;;;;;;;3.17;1.17;;;20.70;57.70;;;;;;5041372;28;20490;-62
2022/09/18 01:12:25;;;;;;;5.80;1.50;;;20.70;57.80;;;;;;5024673;28;20029;-62
2022/09/18 01:14:51;;;;;;;5.13;1.67;;;20.70;57.80;;;;;;5027629;28;20095;-62
2022/09/18 01:17:32;;;;;;;5.20;1.20;;;20.70;57.80;;;;;;5022298;28;20029;-62
2022/09/18 01:20:19;;;;;;;5.28;1.40;;;20.70;57.90;;;;;;5042606;28;20259;-62
2022/09/18 01:23:13;;;;;;;4.22;1.27;;;20.70;57.80;;;;;;5045332;28;20116;-62
2022/09/18 01:25:55;;;;;;;6.38;1.60;;;20.60;57.80;;;;;;5014342;28;20017;-62
2022/09/18 01:28:48;;;;;;;4.60;1.50;;;20.60;57.80;;;;;;5026615;28;20055;-62
2022/09/18 01:31:38;;;;;;;4.45;1.30;;;20.60;57.80;;;;;;5012158;28;20020;-61
2022/09/18 01:34:08;;;;;;;3.85;1.17;;;20.60;57.90;;;;;;5026046;28;21497;-62
2022/09/18 01:36:35;;;;;;;4.93;1.30;;;20.60;57.80;;;;;;5022001;28;20082;-62
2022/09/18 01:39:19;;;;;;;6.45;1.50;;;20.60;57.80;;;;;;5028336;28;20059;-62
2022/09/18 01:41:50;;;;;;;2.40;1.13;;;20.60;57.80;;;;;;5008581;28;20047;-62
2022/09/18 01:44:17;;;;;;;4.90;1.08;;;20.60;57.90;;;;;;5025696;28;20025;-61
2022/09/18 01:46:43;;;;;;;4.28;1.20;;;20.60;57.90;;;;;;5025709;28;20029;-61
2022/09/18 01:49:13;;;;;;;5.03;1.25;;;20.50;57.80;;;;;;5020695;28;20607;-62
2022/09/18 01:51:50;;;;;;;4.22;1.33;;;20.50;57.80;;;;;;5026256;28;20507;-61
2022/09/18 01:54:21;;;;;;;4.45;1.40;;;20.50;57.90;;;;;;5025736;28;20424;-62
2022/09/18 01:56:54;;;;;;;3.97;1.20;;;20.50;57.80;;;;;;5026489;28;20075;-62
2022/09/18 01:59:27;;;;;;;3.30;1.23;;;20.50;57.80;;;;;;5026008;28;20029;-61
2022/09/18 02:01:53;;;;;;;2.60;1.02;;;20.50;57.80;;;;;;5008743;28;20029;-61
2022/09/18 02:04:26;;;;;;;3.97;1.23;;;20.50;57.80;;;;;;5026952;28;20025;-61
2022/09/18 02:07:18;;;;;;;4.22;1.23;;;20.50;57.90;;;;;;5026277;28;20625;-61
2022/09/18 02:09:43;;;;;;;4.72;1.33;;;20.50;57.80;;;;;;5013423;28;20033;-61
2022/09/18 02:12:13;;;;;;;3.22;1.20;;;20.40;57.80;;;;;;5043606;28;20401;-61
2022/09/18 02:14:41;;;;;;;4.43;1.45;;;20.40;57.80;;;;;;5041625;28;20071;-61
2022/09/18 02:17:19;;;;;;;3.30;1.02;;;20.40;57.80;;;;;;5010282;28;20048;-61
2022/09/18 02:19:50;;;;;;;2.28;0.93;;;20.40;57.80;;;;;;5039245;28;20136;-62
2022/09/18 02:22:17;;;;;;;3.05;1.08;;;20.40;57.90;;;;;;5041582;28;20045;-62
2022/09/18 02:24:44;;;;;;;3.45;1.10;;;20.40;57.80;;;;;;5044731;28;20071;-62
2022/09/18 02:27:10;;;;;;;3.63;1.10;;;20.40;57.80;;;;;;5025389;28;20678;-61
2022/09/18 02:29:35;;;;;;;2.90;1.10;;;20.40;57.80;;;;;;5010007;28;20041;-62
2022/09/18 02:32:02;;;;;;;3.60;1.10;;;20.40;57.80;;;;;;5025390;28;20482;-61
2022/09/18 02:34:28;;;;;;;4.78;1.17;;;20.40;57.80;;;;;;5023430;28;20037;-62
2022/09/18 02:36:57;;;;;;;3.47;0.82;;;20.30;57.80;;;;;;5010712;28;20013;-62
2022/09/18 02:39:26;;;;;;;2.47;0.90;;;20.30;57.80;;;;;;5042246;28;20037;-62
2022/09/18 02:42:12;;;;;;;4.68;1.13;;;20.30;57.80;;;;;;5043980;28;20068;-61
2022/09/18 02:44:49;;;;;;;3.53;1.13;;;20.30;57.80;;;;;;4984375;28;20034;-62
2022/09/18 02:47:42;;;;;;;5.57;1.23;;;20.30;57.80;;;;;;4979895;28;20550;-62
2022/09/18 02:50:22;;;;;;;3.08;0.90;;;20.30;57.80;;;;;;4981628;28;20049;-61
2022/09/18 02:52:56;;;;;;;2.17;0.90;;;20.30;57.80;;;;;;4968594;28;20035;-61
2022/09/18 02:55:27;;;;;;;3.25;0.90;;;20.30;57.70;;;;;;4983787;28;20488;-62
2022/09/18 02:58:14;;;;;;;2.55;1.00;;;20.30;57.80;;;;;;4982199;28;20030;-62
2022/09/18 03:00:43;;;;;;;4.25;1.10;;;20.30;57.80;;;;;;4981859;28;20065;-62
2022/09/18 03:03:13;;;;;;;3.80;0.98;;;20.30;57.80;;;;;;4983570;28;20423;-61
2022/09/18 03:05:39;;;;;;;2.05;1.00;;;20.20;57.80;;;;;;4980958;28;20045;-61
2022/09/18 03:08:05;;;;;;;3.38;1.10;;;20.20;57.80;;;;;;4984220;28;20113;-62
2022/09/18 03:10:31;;;;;;;2.10;0.90;;;20.20;57.60;;;;;;4983983;28;20026;-62
2022/09/18 03:12:56;;;;;;;3.03;0.90;;;20.20;57.70;;;;;;4981578;28;20040;-62
2022/09/18 03:15:22;;;;;;;3.08;1.15;;;20.20;57.60;;;;;;4981901;28;20034;-61
2022/09/18 03:17:48;;;;;;;1.85;0.90;;;20.20;57.80;;;;;;4985114;28;20113;-62
2022/09/18 03:20:13;;;;;;;4.03;1.08;;;20.20;57.80;;;;;;4984430;28;20129;-61
2022/09/18 03:22:39;;;;;;;1.98;1.00;;;20.20;57.70;;;;;;5035022;28;20108;-62
2022/09/18 03:25:05;;;;;;;3.03;0.90;;;20.20;57.70;;;;;;5041486;28;20385;-62
2022/09/18 03:27:31;;;;;;;2.42;0.90;;;20.10;57.80;;;;;;5039854;28;20029;-61
2022/09/18 03:29:56;;;;;;;3.00;0.95;;;20.20;57.60;;;;;;5041111;28;20028;-61
2022/09/18 03:32:22;;;;;;;2.42;0.80;;;20.10;57.50;;;;;;5041849;28;20031;-62
2022/09/18 03:34:48;;;;;;;2.28;1.05;;;20.10;57.80;;;;;;5041745;28;20065;-62
2022/09/18 03:37:13;;;;;;;2.15;1.00;;;20.10;57.60;;;;;;5045035;28;20036;-61
2022/09/18 03:39:39;;;;;;;3.72;0.80;;;20.10;57.80;;;;;;5047815;28;20087;-61
2022/09/18 03:42:05;;;;;;;2.88;1.00;;;20.10;57.50;;;;;;5045426;28;20033;-62
2022/09/18 03:44:30;;;;;;;2.40;1.00;;;20.10;57.80;;;;;;5045996;28;20056;-62
2022/09/18 03:46:56;;;;;;;2.40;0.93;;;20.10;57.50;;;;;;5044875;28;20059;-62
2022/09/18 03:49:22;;;;;;;3.15;1.00;;;20.00;57.70;;;;;;5045913;28;20029;-61
2022/09/18 03:51:47;;;;;;;2.55;0.88;;;20.00;57.30;;;;;;5047193;28;20028;-61
2022/09/18 03:54:13;;;;;;;1.17;0.70;;;20.00;57.50;;;;;;5046607;28;20020;-61
2022/09/18 03:56:39;;;;;;;1.80;0.85;;;20.00;57.60;;;;;;5045020;28;20029;-61
2022/09/18 03:59:05;;;;;;;3.83;1.20;;;20.00;57.50;;;;;;5045830;28;20072;-62
2022/09/18 04:01:30;;;;;;;2.05;0.88;;;20.00;57.40;;;;;;5043213;28;20104;-62
2022/09/18 04:03:56;;;;;;;2.33;0.88;;;20.00;57.40;;;;;;5043953;28;20112;-62
2022/09/18 04:06:22;;;;;;;2.42;0.90;;;20.00;57.50;;;;;;5045658;28;20025;-61
2022/09/18 04:08:47;;;;;;;3.42;1.10;;;20.00;57.40;;;;;;5042927;28;20090;-61
2022/09/18 04:11:13;;;;;;;3.15;1.00;;;20.00;57.50;;;;;;5045000;28;20063;-61
2022/09/18 04:13:38;;;;;;;2.80;0.95;;;20.00;57.60;;;;;;5045131;28;20052;-61
2022/09/18 04:16:04;;;;;;;2.03;0.80;;;20.00;57.50;;;;;;5043981;28;20378;-62
2022/09/18 04:18:30;;;;;;;2.10;0.90;;;19.90;57.50;;;;;;5044756;28;20032;-62
2022/09/18 04:20:56;;;;;;;2.38;0.90;;;19.90;57.60;;;;;;5045329;28;20139;-62
2022/09/18 04:23:21;;;;;;;2.90;1.00;;;19.90;57.40;;;;;;5046874;28;20021;-62
2022/09/18 04:25:47;;;;;;;2.20;0.80;;;19.90;57.60;;;;;;5043890;28;20499;-62
2022/09/18 04:28:12;;;;;;;3.75;0.98;;;19.90;57.50;;;;;;5042902;28;20589;-61
2022/09/18 04:30:38;;;;;;;2.75;0.88;;;19.90;57.50;;;;;;5043241;28;20025;-62
2022/09/18 04:33:04;;;;;;;3.13;0.85;;;19.90;57.50;;;;;;5043929;28;20060;-61
2022/09/18 04:35:30;;;;;;;1.85;0.85;;;19.90;57.40;;;;;;5044246;28;20033;-61
2022/09/18 04:37:55;;;;;;;2.88;0.90;;;19.90;57.40;;;;;;5043892;28;20455;-62
2022/09/18 04:40:21;;;;;;;1.92;0.80;;;19.90;57.40;;;;;;5030029;28;20037;-61
2022/09/18 04:42:47;;;;;;;3.50;0.98;;;19.80;57.30;;;;;;5044356;28;20079;-61
2022/09/18 04:45:13;;;;;;;1.88;0.68;;;19.80;57.40;;;;;;5043378;28;20029;-62
2022/09/18 04:47:39;;;;;;;3.78;0.95;;;19.80;57.60;;;;;;5046297;28;20063;-62
2022/09/18 04:50:07;;;;;;;2.13;0.90;;;19.80;57.30;;;;;;5042902;28;20040;-61
2022/09/18 04:52:34;;;;;;;3.10;1.02;;;19.80;57.40;;;;;;5044470;28;20044;-62
2022/09/18 04:54:59;;;;;;;1.90;0.80;;;19.80;57.50;;;;;;5043558;28;20428;-61
2022/09/18 04:57:25;;;;;;;3.05;0.90;;;19.80;57.40;;;;;;5045621;28;20053;-61
2022/09/18 04:59:51;;;;;;;1.58;0.85;;;19.80;57.50;;;;;;5046654;28;20017;-61
2022/09/18 05:02:17;;;;;;;3.53;1.00;;;19.80;57.40;;;;;;5042459;28;20098;-62
2022/09/18 05:04:43;;;;;;;2.65;0.93;;;19.80;57.60;;;;;;5025713;28;20056;-61
2022/09/18 05:07:09;;;;;;;2.33;0.88;;;19.70;57.40;;;;;;5042824;28;20122;-61
2022/09/18 05:09:35;;;;;;;2.28;0.80;;;19.80;57.60;;;;;;5043447;28;20555;-63
2022/09/18 05:12:01;;;;;;;2.53;0.98;;;19.80;57.60;;;;;;5045636;28;20037;-62
2022/09/18 05:14:26;;;;;;;2.00;0.70;;;19.70;57.50;;;;;;5044217;28;20022;-62
2022/09/18 05:16:52;;;;;;;3.45;1.00;;;19.70;57.40;;;;;;5044975;28;20067;-62
2022/09/18 05:19:18;;;;;;;2.58;0.80;;;19.70;57.40;;;;;;5043978;28;20045;-61
2022/09/18 05:21:43;;;;;;;2.88;0.82;;;19.70;57.50;;;;;;5042716;28;20053;-62
2022/09/18 05:24:09;;;;;;;2.35;0.90;;;19.70;57.50;;;;;;5024840;28;20021;-62
2022/09/18 05:26:35;;;;;;;1.73;0.70;;;19.70;57.60;;;;;;5041465;28;20064;-63
2022/09/18 05:29:02;;;;;;;2.28;0.90;;;19.70;57.60;;;;;;5045909;28;20505;-62
2022/09/18 05:31:28;;;;;;;2.60;0.88;;;19.70;57.60;;;;;;5045186;28;20100;-62
2022/09/18 05:33:53;;;;;;;2.13;0.93;;;19.70;57.60;;;;;;5043151;28;20596;-62
2022/09/18 05:36:19;;;;;;;1.98;0.90;;;19.70;57.60;;;;;;5044689;28;20096;-62
2022/09/18 05:38:45;;;;;;;2.22;0.90;;;19.60;57.50;;;;;;5041742;28;20032;-62
2022/09/18 05:41:10;;;;;;;2.50;0.90;;;19.70;57.60;;;;;;5047581;28;20037;-62
2022/09/18 05:43:36;;;;;;;1.85;0.90;;;19.60;57.50;;;;;;5041441;28;20071;-62
2022/09/18 05:46:02;;;;;;;3.05;0.90;;;19.60;57.50;;;;;;5039165;28;20078;-63
2022/09/18 05:48:27;;;;;;;1.45;0.82;;;19.60;57.50;;;;;;5024386;28;20029;-62
2022/09/18 05:50:53;;;;;;;2.25;0.80;;;19.60;57.50;;;;;;5042914;28;20037;-61
2022/09/18 05:53:20;;;;;;;2.17;0.90;;;19.60;57.60;;;;;;5042775;28;20466;-62
2022/09/18 05:55:45;;;;;;;2.40;0.70;;;19.60;57.60;;;;;;5046426;28;20031;-62
2022/09/18 05:58:13;;;;;;;1.67;0.85;;;19.60;57.50;;;;;;5044468;28;20013;-62
2022/09/18 06:00:45;;;;;;;1.35;0.63;;;19.60;57.60;;;;;;5041278;28;20072;-62
2022/09/18 06:03:12;;;;;;;2.88;0.95;;;19.60;57.60;;;;;;5041260;28;20021;-62
2022/09/18 06:05:39;;;;;;;0.93;0.60;;;19.60;57.60;;;;;;5045200;28;20496;-61
2022/09/18 06:08:06;;;;;;;1.85;0.90;;;19.60;57.60;;;;;;5043682;28;20066;-63
2022/09/18 06:10:32;;;;;;;2.15;0.82;;;19.60;57.60;;;;;;5045182;28;20025;-62
2022/09/18 06:13:05;;;;;;;1.50;0.70;;;19.50;57.60;;;;;;5043440;28;20101;-62
2022/09/18 06:15:31;;;;;;;2.00;0.90;;;19.60;57.70;;;;;;5026173;28;20456;-61
2022/09/18 06:17:57;;;;;;;2.15;0.70;;;19.60;57.70;;;;;;5040355;28;20040;-62
2022/09/18 06:20:23;;;;;;;1.95;0.75;;;19.50;57.70;;;;;;5041779;28;20488;-61
2022/09/18 06:22:48;;;;;;;1.60;0.80;;;19.50;57.60;;;;;;5041217;28;20024;-62
2022/09/18 06:25:18;;;;;;;2.92;0.80;;;19.50;57.60;;;;;;5044146;28;20036;-62
2022/09/18 06:27:45;;;;;;;1.67;0.70;;;19.50;57.60;;;;;;5040288;28;20509;-62
2022/09/18 06:30:11;;;;;;;2.42;0.90;;;19.50;57.60;;;;;;5040619;28;20029;-61
2022/09/18 06:32:37;;;;;;;2.63;0.90;;;19.50;57.70;;;;;;5040974;28;20162;-62
2022/09/18 06:35:02;;;;;;;5.15;1.40;;;19.50;57.80;;;;;;5042613;28;20044;-61
2022/09/18 06:37:28;;;;;;;4.32;1.00;;;19.50;60.20;;;;;;5042121;28;20818;-62
2022/09/18 06:39:54;;;;;;;5.75;0.82;;;19.50;59.40;;;;;;5045685;28;20049;-61
2022/09/18 06:42:19;;;;;;;4.88;1.00;;;19.50;59.50;;;;;;5041496;28;20021;-62
2022/09/18 06:44:45;;;;;;;5.10;0.95;;;19.50;59.70;;;;;;5041114;28;20075;-62
2022/09/18 06:47:11;;;;;;;2.70;0.73;;;19.60;60.20;;;;;;5041265;28;20036;-61
2022/09/18 06:49:37;;;;;;;3.92;0.90;;;19.60;60.00;;;;;;5039576;28;20032;-61
2022/09/18 06:52:03;;;;;;;4.32;1.10;;;19.60;59.80;;;;;;5039933;28;20030;-61
2022/09/18 06:54:29;;;;;;;4.72;1.05;;;19.60;59.90;;;;;;5043323;28;20254;-62
2022/09/18 06:56:55;;;;;;;6.50;1.00;;;19.50;59.90;;;;;;5041641;28;20075;-63
2022/09/18 06:59:21;;;;;;;5.03;1.08;;;19.60;60.10;;;;;;5046025;28;20040;-62
2022/09/18 07:01:48;;;;;;;4.25;0.95;;;19.50;60.30;;;;;;5046342;28;20521;-62
2022/09/18 07:04:14;;;;;;;4.50;1.10;;;19.50;60.10;;;;;;5040144;28;20037;-61
2022/09/18 07:06:44;;;;;;;7.72;1.20;;;19.50;60.20;;;;;;5043235;28;20021;-62
2022/09/18 07:09:10;;;;;;;6.93;1.10;;;19.50;60.20;;;;;;5040602;28;20021;-62
2022/09/18 07:11:36;;;;;;;6.85;1.73;;;19.50;60.20;;;;;;5046272;28;20458;-61
2022/09/18 07:14:05;;;;;;;5.53;1.35;;;19.50;60.20;;;;;;5046678;28;20025;-61
2022/09/18 07:16:31;;;;;;;7.03;1.20;;;19.50;60.20;;;;;;5042915;28;20040;-62
2022/09/18 07:18:58;;;;;;;7.25;1.27;;;19.50;60.10;;;;;;5046271;28;20028;-62
2022/09/18 07:21:25;;;;;;;3.20;0.85;;;19.50;60.10;;;;;;5029772;28;20619;-61
2022/09/18 07:23:51;;;;;;;6.90;1.25;;;19.40;60.00;;;;;;5044321;28;20112;-61
2022/09/18 07:26:18;;;;;;;3.88;1.10;;;19.50;60.10;;;;;;5045369;28;20124;-62
2022/09/18 07:28:44;;;;;;;6.35;1.30;;;19.50;61.10;;;;;;5046597;28;20032;-62
2022/09/18 07:31:10;;;;;;;6.85;1.40;;;19.40;60.00;;;;;;5044991;28;20419;-61
2022/09/18 07:33:36;;;;;;;6.38;1.35;;;19.40;59.90;;;;;;5046552;28;20060;-61
2022/09/18 07:36:03;;;;;;;3.25;0.93;;;19.40;60.00;;;;;;5042401;28;21120;-62
2022/09/18 07:38:29;;;;;;;4.50;1.13;;;19.40;59.90;;;;;;5051145;28;20637;-61
2022/09/18 07:40:55;;;;;;;3.88;1.10;;;19.40;60.00;;;;;;5050129;28;20072;-62
2022/09/18 07:43:20;;;;;;;4.28;1.20;;;19.40;60.00;;;;;;5049433;28;20367;-61
2022/09/18 07:45:46;;;;;;;4.15;1.00;;;19.40;61.00;;;;;;5050326;28;20452;-62
2022/09/18 07:48:12;;;;;;;3.95;1.13;;;19.40;60.00;;;;;;5045202;28;20029;-62
2022/09/18 07:50:38;;;;;;;2.83;0.90;;;19.40;59.90;;;;;;5045455;28;20497;-61
2022/09/18 07:53:04;;;;;;;4.03;1.08;;;19.50;59.90;;;;;;5049955;28;20027;-61
2022/09/18 07:55:33;;;;;;;5.05;1.23;;;19.50;59.80;;;;;;5043370;28;20119;-61
2022/09/18 07:58:00;;;;;;;6.55;1.30;;;19.50;59.90;;;;;;5035765;28;20025;-61
2022/09/18 08:00:27;;;;;;;6.15;1.33;;;19.60;59.80;;;;;;5047327;28;20395;-61
2022/09/18 08:03:10;;;;;;;5.63;1.20;;;19.60;59.80;;;;;;5044806;28;20043;-61
2022/09/18 08:05:36;;;;;;;4.25;1.20;;;19.60;59.80;;;;;;5027935;28;20020;-61
2022/09/18 08:08:06;;;;;;;5.00;1.30;;;19.60;59.70;;;;;;5048440;28;20082;-61
2022/09/18 08:10:32;;;;;;;5.57;1.13;;;19.60;59.70;;;;;;5045235;28;20103;-61
2022/09/18 08:12:58;;;;;;;9.55;1.20;;;19.60;59.90;;;;;;5045268;28;20397;-61
2022/09/18 08:15:23;;;;;;;5.90;1.10;;;19.60;60.80;;;;;;5044250;28;20051;-61
2022/09/18 08:17:49;;;;;;;5.88;1.20;;;19.60;59.80;;;;;;5044181;28;20029;-61
2022/09/18 08:20:15;;;;;;;7.68;1.20;;;19.60;59.90;;;;;;5044469;28;20044;-61
2022/09/18 08:22:41;;;;;;;5.45;1.38;;;19.60;59.90;;;;;;5044642;28;20410;-61
2022/09/18 08:25:07;;;;;;;6.43;1.10;;;19.70;60.10;;;;;;5044868;28;20025;-65
2022/09/18 08:27:39;;;;;;;10.25;1.98;;;19.70;59.90;;;;;;5046059;28;20527;-64
2022/09/18 08:30:05;;;;;;;7.35;1.40;;;19.70;60.00;;;;;;5044663;28;20100;-64
2022/09/18 08:32:38;;;;;;;9.07;1.10;;;19.80;60.00;;;;;;5030542;28;20064;-59
2022/09/18 08:35:05;;;;;;;5.88;1.40;;;19.80;59.90;;;;;;5031524;28;20033;-61
2022/09/18 08:37:32;;;;;;;6.40;1.40;;;19.80;60.00;;;;;;5024800;28;20040;-61
2022/09/18 08:39:57;;;;;;;10.35;1.27;;;19.80;61.10;;;;;;5043943;28;20799;-61
2022/09/18 08:42:29;;;;;;;4.53;1.23;;;19.80;60.00;;;;;;5044474;28;20060;-62
2022/09/18 08:44:59;;;;;;;6.07;1.30;;;19.80;60.00;;;;;;5042632;28;20028;-61
2022/09/18 08:47:33;;;;;;;12.25;1.38;;;19.80;60.00;;;;;;5054770;28;20340;-63
2022/09/18 08:50:04;;;;;;;8.43;1.42;;;19.90;60.00;;;;;;5024545;28;20029;-61
2022/09/18 08:52:36;;;;;;;7.75;1.13;;;19.90;60.00;;;;;;5042998;28;20020;-61
2022/09/18 08:55:04;;;;;;;4.68;1.20;;;19.90;59.90;;;;;;5048482;28;20024;-61
2022/09/18 08:57:41;;;;;;;5.10;1.20;;;19.80;60.10;;;;;;5047984;28;20060;-61
2022/09/18 09:00:21;;;;;;;7.10;1.23;;;19.90;60.20;;;;;;5011497;28;20051;-61
2022/09/18 09:02:54;;;;;;;9.25;1.25;;;19.90;60.00;;;;;;5029519;28;20032;-61
2022/09/18 09:05:21;;;;;;;10.40;4.00;;;19.90;60.30;;;;;;5026253;28;20032;-61
2022/09/18 09:08:07;;;;;;;12.13;4.05;;;19.90;60.40;;;;;;5044625;28;20053;-61
2022/09/18 09:10:41;;;;;;;27.30;11.65;;;20.00;60.40;;;;;;5026535;28;20041;-61
2022/09/18 09:13:24;;;;;;;37.53;18.25;;;20.00;60.50;;;;;;5046858;28;20032;-61
2022/09/18 09:16:06;;;;;;;20.70;9.77;;;20.10;60.50;;;;;;5046344;28;20040;-61
2022/09/18 09:18:50;;;;;;;20.85;9.98;;;20.10;60.00;;;;;;5024062;28;20501;-61
2022/09/18 09:21:34;;;;;;;29.88;13.60;;;20.10;60.40;;;;;;5046692;28;20052;-61
2022/09/18 09:24:31;;;;;;;17.23;6.18;;;20.00;60.50;;;;;;5029135;28;20029;-62
2022/09/18 09:26:57;;;;;;;19.13;6.40;;;20.00;60.40;;;;;;5051203;28;20143;-61
2022/09/18 09:29:31;;;;;;;14.52;5.03;;;20.00;60.50;;;;;;5047461;28;20025;-61
2022/09/18 09:32:05;;;;;;;17.70;5.22;;;20.10;60.50;;;;;;5028527;28;20020;-61
2022/09/18 09:34:42;;;;;;;11.80;4.40;;;20.10;60.60;;;;;;5023890;28;20091;-61
2022/09/18 09:37:14;;;;;;;14.40;4.38;;;20.10;60.30;;;;;;5032105;28;20025;-61
2022/09/18 09:40:31;;;;;;;14.48;3.97;;;20.20;60.50;;;;;;5029295;28;20037;-61
2022/09/18 09:43:35;;;;;;;12.23;3.35;;;20.20;60.20;;;;;;5036468;28;20036;-61
2022/09/18 09:46:28;;;;;;;11.65;3.22;;;20.20;60.00;;;;;;5039177;28;20037;-61
2022/09/18 09:49:22;;;;;;;16.20;3.38;;;20.20;60.10;;;;;;5028254;28;22092;-61
2022/09/18 09:52:13;;;;;;;9.98;3.20;;;20.20;60.10;;;;;;5044505;28;20481;-61
2022/09/18 09:54:45;;;;;;;10.60;2.72;;;20.20;60.10;;;;;;5064009;28;20974;-61
2022/09/18 09:57:29;;;;;;;10.88;3.08;;;20.20;60.00;;;;;;5065246;28;20024;-61
2022/09/18 10:00:16;;;;;;;11.80;2.87;;;20.20;59.90;;;;;;5066439;28;20039;-61
2022/09/18 10:03:21;;;;;;;10.23;2.47;;;20.20;60.00;;;;;;5060632;28;20113;-61
2022/09/18 10:06:15;;;;;;;8.40;2.67;;;20.20;60.00;;;;;;5067282;28;20031;-60
2022/09/18 10:08:52;;;;;;;8.93;2.08;;;20.20;60.00;;;;;;5061762;28;20037;-60
2022/09/18 10:11:18;;;;;;;7.95;2.30;;;20.20;60.00;;;;;;5063342;28;20033;-60
2022/09/18 10:13:55;;;;;;;7.38;2.15;;;20.20;59.90;;;;;;5059921;28;20048;-60
2022/09/18 10:16:23;;;;;;;11.10;2.22;;;20.30;59.90;;;;;;5059582;28;20028;-60
2022/09/18 10:18:49;;;;;;;8.82;2.17;;;20.30;59.80;;;;;;5062420;28;20033;-60
2022/09/18 10:21:19;;;;;;;7.95;1.88;;;20.30;59.70;;;;;;5061492;28;20492;-60
2022/09/18 10:24:08;;;;;;;8.27;1.88;;;20.30;59.80;;;;;;5066566;28;20035;-60
2022/09/18 10:26:37;;;;;;;8.77;1.80;;;20.30;59.80;;;;;;5060624;28;20033;-60
2022/09/18 10:29:03;;;;;;;8.00;1.98;;;20.30;59.80;;;;;;5045146;28;20023;-60
2022/09/18 10:31:55;;;;;;;8.27;1.90;;;20.40;59.80;;;;;;5056041;28;20172;-60
2022/09/18 10:34:41;;;;;;;8.35;1.77;;;20.40;59.70;;;;;;5058215;28;20412;-60
2022/09/18 10:37:17;;;;;;;5.80;1.77;;;20.40;59.60;;;;;;5062349;28;20040;-61
2022/09/18 10:39:51;;;;;;;8.05;1.80;;;20.40;59.60;;;;;;5059615;28;20024;-60
2022/09/18 10:42:18;;;;;;;7.32;1.80;;;20.40;59.40;;;;;;5052639;28;20049;-61
2022/09/18 10:44:58;;;;;;;6.72;2.15;;;20.40;59.30;;;;;;5058423;28;20134;-61
2022/09/18 10:47:29;;;;;;;6.85;1.73;;;20.40;59.30;;;;;;5075364;28;20033;-61
2022/09/18 10:49:57;;;;;;;5.72;1.70;;;20.50;59.30;;;;;;5064091;28;20055;-61
2022/09/18 10:52:30;;;;;;;8.57;1.90;;;20.50;59.20;;;;;;5063549;28;20095;-61
2022/09/18 10:55:06;;;;;;;10.25;1.80;;;20.50;59.00;;;;;;5055597;28;20059;-57
2022/09/18 10:57:37;;;;;;;8.40;1.73;;;20.50;59.10;;;;;;5054379;28;20083;-60
2022/09/18 11:00:10;;;;;;;5.55;1.50;;;20.60;58.90;;;;;;5058144;28;20067;-60
2022/09/18 11:02:43;;;;;;;7.15;1.70;;;20.60;59.00;;;;;;5058842;28;20028;-60
2022/09/18 11:06:07;;;;;;;7.25;1.75;;;20.60;59.00;;;;;;5046238;28;20028;-61
2022/09/18 11:08:36;;;;;;;6.88;1.50;;;20.70;59.00;;;;;;5000747;28;20041;-60
2022/09/18 11:11:09;;;;;;;8.20;1.52;;;20.70;58.80;;;;;;5001207;28;20054;-60
2022/09/18 11:13:48;;;;;;;5.15;1.33;;;20.80;58.80;;;;;;5005792;28;20046;-60
2022/09/18 11:16:21;;;;;;;6.97;1.67;;;20.80;58.80;;;;;;5004865;28;20387;-60
2022/09/18 11:18:47;;;;;;;11.52;1.42;;;20.80;58.70;;;;;;5000460;28;20743;-60
2022/09/18 11:21:12;;;;;;;5.32;1.40;;;20.90;58.70;;;;;;4991605;28;20073;-59
2022/09/18 11:23:41;;;;;;;7.65;1.70;;;20.90;58.60;;;;;;5005422;28;20069;-60
2022/09/18 11:26:18;;;;;;;10.43;1.63;;;20.90;58.60;;;;;;5016366;28;20026;-60
2022/09/18 11:28:57;;;;;;;5.65;1.45;;;21.00;58.50;;;;;;5006098;28;20029;-60
2022/09/18 11:31:22;;;;;;;7.00;1.55;;;21.00;58.40;;;;;;5004197;28;20176;-60
2022/09/18 11:33:52;;;;;;;5.03;1.20;;;21.10;58.40;;;;;;5003077;28;20046;-59
2022/09/18 11:36:26;;;;;;;5.72;1.20;;;21.10;58.20;;;;;;5015940;28;20030;-59
2022/09/18 11:38:56;;;;;;;6.38;1.40;;;21.10;58.00;;;;;;5017665;28;20588;-59
2022/09/18 11:41:23;;;;;;;6.07;1.48;;;21.00;57.80;;;;;;5006068;28;20042;-59
2022/09/18 11:44:11;;;;;;;6.65;1.30;;;21.00;57.60;;;;;;5029037;28;20037;-58
2022/09/18 11:46:46;;;;;;;3.75;1.20;;;21.00;57.60;;;;;;5070032;28;20624;-58
2022/09/18 11:49:24;;;;;;;6.38;1.30;;;21.00;57.60;;;;;;5047715;28;20122;-58
2022/09/18 11:52:09;;;;;;;5.53;1.15;;;21.00;57.30;;;;;;5045810;28;20017;-58
2022/09/18 11:54:51;;;;;;;3.25;1.10;;;21.00;57.10;;;;;;5043006;28;20068;-59
2022/09/18 11:57:49;;;;;;;5.93;1.10;;;21.10;56.70;;;;;;5043234;28;20052;-59
2022/09/18 12:00:16;;;;;;;5.90;1.05;;;21.10;56.80;;;;;;5028237;28;20123;-60
2022/09/18 12:03:13;;;;;;;4.57;1.02;;;21.20;56.60;;;;;;5046500;28;20731;-60
2022/09/18 12:05:42;;;;;;;6.63;1.20;;;21.20;56.50;;;;;;5047491;28;20494;-61
2022/09/18 12:08:36;;;;;;;6.10;1.15;;;21.20;56.30;;;;;;5046510;28;20036;-60
2022/09/18 12:11:05;;;;;;;5.97;1.20;;;21.20;56.40;;;;;;5041116;28;20429;-60
2022/09/18 12:13:55;;;;;;;7.18;1.15;;;21.30;56.50;;;;;;5043525;28;20040;-60
2022/09/18 12:16:53;;;;;;;6.65;1.30;;;21.30;56.40;;;;;;5039345;28;20017;-60
2022/09/18 12:19:28;;;;;;;6.63;1.65;;;21.40;56.30;;;;;;5038004;28;20035;-59
2022/09/18 12:22:10;;;;;;;7.93;1.30;;;21.50;56.20;;;;;;5029275;28;20115;-59
2022/09/18 12:24:36;;;;;;;5.95;1.08;;;21.60;56.20;;;;;;5055061;28;20081;-58
2022/09/18 12:27:14;;;;;;;4.57;1.33;;;21.70;56.00;;;;;;5046050;28;20500;-58
2022/09/18 12:29:55;;;;;;;5.43;1.23;;;21.70;55.90;;;;;;5046171;28;20107;-58
2022/09/18 12:32:47;;;;;;;8.55;1.23;;;21.80;55.90;;;;;;5046315;28;20029;-58
2022/09/18 12:35:34;;;;;;;7.80;1.30;;;21.80;55.80;;;;;;5073466;28;20082;-58
2022/09/18 12:38:26;;;;;;;5.07;1.20;;;21.90;55.80;;;;;;5048793;28;20397;-59
2022/09/18 12:41:25;;;;;;;4.75;1.13;;;21.90;55.80;;;;;;5044669;28;20044;-59
2022/09/18 12:44:20;;;;;;;6.03;1.08;;;22.00;55.70;;;;;;5043833;28;20024;-59
2022/09/18 12:47:04;;;;;;;5.93;1.40;;;22.00;55.60;;;;;;5045964;28;20052;-59
2022/09/18 12:49:53;;;;;;;3.50;1.00;;;22.10;55.50;;;;;;5044681;28;20044;-59
2022/09/18 12:52:58;;;;;;;4.38;1.00;;;22.10;55.60;;;;;;5045159;28;20045;-59
2022/09/18 12:55:36;;;;;;;5.27;1.00;;;22.10;55.50;;;;;;5013119;28;20041;-59
2022/09/18 12:58:43;;;;;;;5.50;1.10;;;22.20;55.40;;;;;;5024194;28;20272;-59
2022/09/18 13:01:35;;;;;;;5.47;1.02;;;22.20;55.30;;;;;;5008839;28;20037;-59
2022/09/18 13:04:35;;;;;;;4.50;1.10;;;22.30;55.30;;;;;;5009667;28;20406;-59
2022/09/18 13:07:04;;;;;;;3.75;0.98;;;22.30;55.20;;;;;;5026580;28;20689;-59
2022/09/18 13:09:36;;;;;;;4.85;0.90;;;22.40;55.20;;;;;;5019257;28;20521;-59